Time;durP1;ratioP1;P1;durP2;ratioP2;P2;SDS_P1;SDS_P2;PMS_P1;PMS_P2;Temp;Humidity;BMP_temperature;BMP_pressure;BME280_temperature;BME280_humidity;BME280_pressure;Samples;Min_cycle;Max_cycle;Signal;HPM_P1;HPM_P2
2022/04/04 00:00:26;;;;;;;11.88;6.18;;;;;;;;;;4996567;28;20181;-72
2022/04/04 00:02:51;;;;;;;12.70;7.10;;;;;;;;;;4996023;28;20189;-72
2022/04/04 00:05:17;;;;;;;11.90;6.33;;;;;;;;;;4995548;28;20539;-72
2022/04/04 00:07:44;;;;;;;13.30;6.43;;;;;;;;;;4995255;28;20429;-72
2022/04/04 00:10:10;;;;;;;17.38;8.23;;;;;;;;;;4995910;28;20465;-72
2022/04/04 00:12:36;;;;;;;23.98;8.90;;;;;;;;;;4995897;28;20303;-72
2022/04/04 00:15:02;;;;;;;22.42;8.40;;;;;;;;;;4995897;28;20178;-72
2022/04/04 00:17:28;;;;;;;17.92;8.02;;;;;;;;;;4995810;28;20185;-72
2022/04/04 00:19:54;;;;;;;18.10;7.22;;;;;;;;;;4995563;28;20177;-72
2022/04/04 00:22:20;;;;;;;15.00;7.30;;;;;;;;;;4995671;28;20256;-72
2022/04/04 00:24:46;;;;;;;15.25;7.40;;;;;;;;;;4995700;28;20438;-69
2022/04/04 00:27:12;;;;;;;18.87;8.57;;;;;;;;;;4995540;28;20611;-70
2022/04/04 00:29:38;;;;;;;15.47;8.63;;;;;;;;;;4995416;28;20491;-70
2022/04/04 00:32:04;;;;;;;20.00;9.80;;;;;;;;;;4995149;28;20429;-70
2022/04/04 00:34:30;;;;;;;14.82;7.60;;;;;;;;;;4995280;28;20791;-70
2022/04/04 00:36:56;;;;;;;15.13;7.88;;;;;;;;;;4995346;28;20248;-72
2022/04/04 00:39:22;;;;;;;18.60;8.10;;;;;;;;;;4995332;28;20637;-70
2022/04/04 00:41:49;;;;;;;22.23;9.30;;;;;;;;;;4995363;28;20445;-70
2022/04/04 00:44:15;;;;;;;14.55;7.82;;;;;;;;;;4994838;28;20437;-70
2022/04/04 00:46:42;;;;;;;15.13;7.03;;;;;;;;;;4995252;28;20264;-70
2022/04/04 00:49:09;;;;;;;21.77;8.73;;;;;;;;;;4994892;28;20201;-70
2022/04/04 00:51:35;;;;;;;13.13;7.70;;;;;;;;;;4994908;28;20574;-70
2022/04/04 00:54:02;;;;;;;19.58;8.80;;;;;;;;;;4994587;28;20207;-70
2022/04/04 00:56:28;;;;;;;20.75;7.80;;;;;;;;;;4995401;28;20188;-72
2022/04/04 00:58:54;;;;;;;16.52;8.27;;;;;;;;;;4995127;28;20657;-72
2022/04/04 01:01:23;;;;;;;15.30;7.95;;;;;;;;;;4994895;28;20664;-72
2022/04/04 01:03:50;;;;;;;21.27;9.05;;;;;;;;;;4986991;28;20186;-73
2022/04/04 01:06:17;;;;;;;14.38;7.38;;;;;;;;;;4994979;28;20605;-73
2022/04/04 01:08:44;;;;;;;14.82;7.53;;;;;;;;;;4994592;28;20213;-73
2022/04/04 01:11:10;;;;;;;15.85;7.47;;;;;;;;;;4995105;28;20643;-72
2022/04/04 01:13:36;;;;;;;26.63;8.67;;;;;;;;;;4996522;28;20262;-72
2022/04/04 01:16:02;;;;;;;18.50;8.85;;;;;;;;;;4994764;28;20461;-73
2022/04/04 01:18:28;;;;;;;28.65;10.13;;;;;;;;;;4994466;28;20664;-73
2022/04/04 01:20:54;;;;;;;20.30;8.07;;;;;;;;;;4993929;28;20181;-73
2022/04/04 01:23:23;;;;;;;18.85;8.63;;;;;;;;;;4994540;28;20439;-72
2022/04/04 01:25:49;;;;;;;19.25;9.18;;;;;;;;;;4994527;28;20707;-70
2022/04/04 01:28:15;;;;;;;13.50;7.20;;;;;;;;;;4994530;28;20216;-70
2022/04/04 01:30:41;;;;;;;17.27;8.30;;;;;;;;;;4994376;28;20249;-70
2022/04/04 01:33:07;;;;;;;17.25;8.15;;;;;;;;;;4994464;28;20181;-70
2022/04/04 01:35:33;;;;;;;16.48;8.18;;;;;;;;;;4994036;28;20200;-70
2022/04/04 01:38:00;;;;;;;17.98;8.40;;;;;;;;;;4994172;28;20587;-70
2022/04/04 01:40:26;;;;;;;16.23;8.38;;;;;;;;;;4994680;28;20186;-72
2022/04/04 01:42:53;;;;;;;18.10;8.80;;;;;;;;;;4993931;28;20200;-72
2022/04/04 01:46:23;;;;;;;18.83;8.77;;;;;;;;;;4993813;28;20189;-72
2022/04/04 01:48:06;;;;;;;24.80;8.93;;;;;;;;;;4993664;28;20660;-72
2022/04/04 01:50:32;;;;;;;25.15;9.40;;;;;;;;;;4994204;28;20214;-72
2022/04/04 01:53:25;;;;;;;15.77;7.97;;;;;;;;;;4993868;28;20205;-72
2022/04/04 01:55:45;;;;;;;18.13;8.40;;;;;;;;;;4993831;28;20641;-70
2022/04/04 01:58:11;;;;;;;18.50;8.35;;;;;;;;;;4993837;28;20554;-70
2022/04/04 02:00:38;;;;;;;29.63;10.38;;;;;;;;;;4993614;28;20182;-70
2022/04/04 02:03:04;;;;;;;22.88;9.38;;;;;;;;;;4993823;28;20204;-70
2022/04/04 02:05:31;;;;;;;18.30;9.00;;;;;;;;;;4993559;28;20189;-70
2022/04/04 02:07:57;;;;;;;32.55;10.00;;;;;;;;;;4993751;28;20181;-70
2022/04/04 02:10:22;;;;;;;17.37;8.20;;;;;;;;;;4994034;28;20687;-72
2022/04/04 02:12:49;;;;;;;21.13;10.37;;;;;;;;;;4995348;28;20460;-72
2022/04/04 02:15:15;;;;;;;20.33;9.15;;;;;;;;;;4993741;28;20776;-72
2022/04/04 02:17:41;;;;;;;17.92;9.00;;;;;;;;;;4993317;28;20661;-72
2022/04/04 02:20:08;;;;;;;27.50;11.50;;;;;;;;;;4993509;28;20188;-72
2022/04/04 02:22:34;;;;;;;18.67;9.25;;;;;;;;;;4993654;28;20513;-72
2022/04/04 02:25:00;;;;;;;25.42;9.82;;;;;;;;;;4993807;28;20177;-70
2022/04/04 02:27:26;;;;;;;16.58;8.23;;;;;;;;;;4992962;28;20186;-70
2022/04/04 02:29:52;;;;;;;22.95;9.40;;;;;;;;;;4993443;28;20208;-70
2022/04/04 02:32:19;;;;;;;17.35;9.27;;;;;;;;;;4993368;28;20657;-70
2022/04/04 02:34:45;;;;;;;17.00;8.02;;;;;;;;;;4993432;28;20763;-70
2022/04/04 02:37:12;;;;;;;18.83;9.18;;;;;;;;;;4993101;28;20181;-70
2022/04/04 02:39:38;;;;;;;17.73;8.48;;;;;;;;;;4993149;28;20276;-70
2022/04/04 02:42:04;;;;;;;17.70;9.30;;;;;;;;;;4993743;28;20605;-72
2022/04/04 02:44:30;;;;;;;16.77;8.45;;;;;;;;;;4992962;28;20260;-72
2022/04/04 02:46:56;;;;;;;17.33;8.80;;;;;;;;;;4993100;28;20193;-72
2022/04/04 02:49:23;;;;;;;19.50;9.50;;;;;;;;;;4992844;28;20205;-72
2022/04/04 02:51:49;;;;;;;14.27;8.13;;;;;;;;;;4993546;28;20896;-72
2022/04/04 02:54:15;;;;;;;24.73;10.27;;;;;;;;;;4993171;28;20224;-72
2022/04/04 02:56:42;;;;;;;22.80;9.90;;;;;;;;;;4993190;28;20235;-73
2022/04/04 02:59:09;;;;;;;17.85;8.93;;;;;;;;;;4993257;28;20268;-72
2022/04/04 03:01:36;;;;;;;17.48;9.07;;;;;;;;;;4993292;28;20648;-72
2022/04/04 03:04:02;;;;;;;22.77;10.30;;;;;;;;;;4993129;28;20209;-73
2022/04/04 03:06:29;;;;;;;15.68;8.52;;;;;;;;;;4992911;28;20189;-72
2022/04/04 03:08:55;;;;;;;16.92;8.35;;;;;;;;;;4993159;28;20185;-72
2022/04/04 03:11:21;;;;;;;18.27;9.23;;;;;;;;;;4993664;28;20174;-70
2022/04/04 03:13:47;;;;;;;25.63;10.07;;;;;;;;;;4994484;28;20208;-70
2022/04/04 03:16:13;;;;;;;19.25;9.35;;;;;;;;;;4992518;28;20605;-70
2022/04/04 03:18:40;;;;;;;15.90;8.40;;;;;;;;;;4992794;28;20248;-70
2022/04/04 03:21:06;;;;;;;24.00;10.43;;;;;;;;;;4993078;28;20174;-70
2022/04/04 03:23:33;;;;;;;19.15;9.73;;;;;;;;;;4992954;28;20604;-70
2022/04/04 03:25:59;;;;;;;24.15;10.27;;;;;;;;;;4993049;28;20251;-72
2022/04/04 03:28:25;;;;;;;17.40;9.13;;;;;;;;;;4991767;28;20321;-73
2022/04/04 03:30:51;;;;;;;18.70;9.32;;;;;;;;;;4992943;28;20202;-72
2022/04/04 03:33:17;;;;;;;19.95;9.43;;;;;;;;;;4993182;28;20265;-73
2022/04/04 03:35:44;;;;;;;17.83;9.70;;;;;;;;;;4992656;28;20181;-73
2022/04/04 03:38:13;;;;;;;20.83;9.98;;;;;;;;;;4992601;28;20193;-72
2022/04/04 03:40:39;;;;;;;17.88;8.90;;;;;;;;;;4992813;28;20189;-72
2022/04/04 03:43:06;;;;;;;19.52;9.13;;;;;;;;;;4993782;28;20213;-73
2022/04/04 03:45:32;;;;;;;23.55;9.35;;;;;;;;;;4996434;28;20181;-73
2022/04/04 03:47:58;;;;;;;26.50;10.00;;;;;;;;;;4995713;28;20193;-73
2022/04/04 03:50:25;;;;;;;20.10;9.18;;;;;;;;;;4996475;28;20255;-73
2022/04/04 03:52:52;;;;;;;28.95;10.80;;;;;;;;;;4996221;28;20734;-72
2022/04/04 03:55:18;;;;;;;16.35;8.65;;;;;;;;;;4996278;28;20178;-73
2022/04/04 03:57:45;;;;;;;17.27;8.70;;;;;;;;;;4996259;28;20185;-70
2022/04/04 04:00:11;;;;;;;23.85;9.50;;;;;;;;;;4996189;28;20186;-70
2022/04/04 04:02:37;;;;;;;20.90;9.57;;;;;;;;;;4995669;28;20241;-70
2022/04/04 04:05:04;;;;;;;23.83;9.95;;;;;;;;;;4996054;28;20190;-70
2022/04/04 04:07:30;;;;;;;20.30;9.05;;;;;;;;;;4995775;28;20182;-70
2022/04/04 04:09:56;;;;;;;20.05;9.98;;;;;;;;;;4995880;28;20292;-71
2022/04/04 04:12:22;;;;;;;22.58;9.77;;;;;;;;;;4995871;28;20217;-70
2022/04/04 04:14:51;;;;;;;18.75;8.70;;;;;;;;;;4996030;28;20537;-70
2022/04/04 04:17:18;;;;;;;24.38;9.20;;;;;;;;;;4995440;28;20232;-70
2022/04/04 04:22:29;;;;;;;22.67;9.82;;;;;;;;;;4995554;28;20289;-70
2022/04/04 04:24:55;;;;;;;18.70;9.18;;;;;;;;;;4995515;28;20205;-70
2022/04/04 04:27:21;;;;;;;20.07;8.70;;;;;;;;;;4995723;28;20178;-70
2022/04/04 04:29:47;;;;;;;19.88;8.65;;;;;;;;;;4995646;28;20460;-70
2022/04/04 04:32:13;;;;;;;18.33;9.20;;;;;;;;;;4994959;28;20594;-70
2022/04/04 04:34:39;;;;;;;21.25;9.18;;;;;;;;;;4995532;28;20186;-70
2022/04/04 04:37:05;;;;;;;23.67;9.60;;;;;;;;;;4995088;28;20178;-70
2022/04/04 04:39:32;;;;;;;17.63;8.80;;;;;;;;;;4995543;28;20235;-70
2022/04/04 04:41:58;;;;;;;21.17;10.30;;;;;;;;;;4995674;28;20216;-73
2022/04/04 04:44:24;;;;;;;21.38;9.57;;;;;;;;;;4994757;28;20253;-73
2022/04/04 04:46:52;;;;;;;23.58;10.10;;;;;;;;;;4995120;28;20184;-73
2022/04/04 04:49:18;;;;;;;21.90;8.10;;;;;;;;;;4982770;28;20542;-73
2022/04/04 04:51:44;;;;;;;18.38;9.38;;;;;;;;;;4995590;28;20213;-73
2022/04/04 04:54:10;;;;;;;27.60;10.97;;;;;;;;;;4993800;28;20276;-73
2022/04/04 04:56:36;;;;;;;23.93;9.87;;;;;;;;;;4994937;28;20740;-72
2022/04/04 04:59:03;;;;;;;38.27;11.20;;;;;;;;;;4995086;28;20412;-73
2022/04/04 05:01:29;;;;;;;28.55;10.57;;;;;;;;;;4994988;28;20416;-73
2022/04/04 05:03:55;;;;;;;24.15;9.57;;;;;;;;;;4994813;28;20177;-73
2022/04/04 05:06:21;;;;;;;37.97;12.00;;;;;;;;;;4994696;28;20209;-73
2022/04/04 05:08:47;;;;;;;19.63;9.30;;;;;;;;;;4994906;28;20900;-72
2022/04/04 05:11:13;;;;;;;23.90;9.83;;;;;;;;;;4994636;28;20490;-72
2022/04/04 05:13:39;;;;;;;31.30;11.23;;;;;;;;;;5002227;28;20420;-71
2022/04/04 05:16:10;;;;;;;29.90;10.30;;;;;;;;;;4993464;28;20903;-71
2022/04/04 05:18:36;;;;;;;26.98;11.32;;;;;;;;;;4994341;28;20202;-71
2022/04/04 05:21:03;;;;;;;30.88;10.90;;;;;;;;;;4994304;28;20264;-71
2022/04/04 05:23:29;;;;;;;23.20;9.90;;;;;;;;;;4994772;28;20197;-71
2022/04/04 05:25:55;;;;;;;18.90;9.55;;;;;;;;;;4994612;28;20633;-71
2022/04/04 05:28:21;;;;;;;22.58;9.13;;;;;;;;;;4995047;28;20277;-71
2022/04/04 05:30:47;;;;;;;22.63;9.97;;;;;;;;;;4993819;28;20671;-71
2022/04/04 05:33:14;;;;;;;14.98;6.55;;;;;;;;;;4994203;28;20428;-71
2022/04/04 05:35:40;;;;;;;27.80;11.38;;;;;;;;;;4994428;28;20656;-71
2022/04/04 05:38:06;;;;;;;25.50;9.70;;;;;;;;;;4994378;28;20192;-71
2022/04/04 05:40:32;;;;;;;23.13;10.10;;;;;;;;;;4993951;28;20189;-71
2022/04/04 05:43:00;;;;;;;18.88;10.23;;;;;;;;;;4994014;28;20433;-71
2022/04/04 05:45:26;;;;;;;31.65;11.00;;;;;;;;;;4993358;28;20209;-71
2022/04/04 05:47:52;;;;;;;28.83;10.73;;;;;;;;;;4993540;28;20637;-71
2022/04/04 05:50:18;;;;;;;28.52;9.70;;;;;;;;;;4993890;28;20468;-71
2022/04/04 05:52:45;;;;;;;18.95;8.40;;;;;;;;;;4993911;28;20197;-71
2022/04/04 05:55:12;;;;;;;20.98;9.18;;;;;;;;;;4993103;28;20651;-71
2022/04/04 05:57:39;;;;;;;24.30;8.85;;;;;;;;;;4994238;28;20178;-71
2022/04/04 06:00:08;;;;;;;23.77;9.32;;;;;;;;;;4993994;28;20268;-71
2022/04/04 06:02:36;;;;;;;20.92;8.73;;;;;;;;;;4993653;28;20273;-71
2022/04/04 06:05:02;;;;;;;20.52;8.30;;;;;;;;;;4993312;28;20189;-71
2022/04/04 06:07:28;;;;;;;18.03;9.20;;;;;;;;;;4993544;28;20695;-71
2022/04/04 06:09:54;;;;;;;26.10;9.25;;;;;;;;;;4993349;28;20883;-71
2022/04/04 06:12:20;;;;;;;11.47;5.13;;;;;;;;;;4996658;28;20260;-71
2022/04/04 06:14:46;;;;;;;17.70;7.10;;;;;;;;;;4996061;28;20487;-71
2022/04/04 06:17:11;;;;;;;20.33;8.60;;;;;;;;;;4993378;28;20433;-71
2022/04/04 06:19:38;;;;;;;14.87;7.30;;;;;;;;;;4993757;28;20962;-80
2022/04/04 06:22:04;;;;;;;23.35;8.63;;;;;;;;;;4993576;28;20418;-79
2022/04/04 06:24:31;;;;;;;10.15;6.13;;;;;;;;;;4993731;28;20185;-79
2022/04/04 06:27:00;;;;;;;17.55;7.63;;;;;;;;;;4987887;28;20216;-80
2022/04/04 06:29:26;;;;;;;16.10;7.47;;;;;;;;;;4993907;28;20707;-75
2022/04/04 06:31:52;;;;;;;18.35;7.25;;;;;;;;;;4992027;28;20556;-75
2022/04/04 06:34:19;;;;;;;16.20;7.63;;;;;;;;;;4992923;28;20178;-75
2022/04/04 06:36:46;;;;;;;12.52;5.57;;;;;;;;;;4993463;28;20249;-75
2022/04/04 06:39:12;;;;;;;16.40;7.07;;;;;;;;;;4993406;28;20200;-76
2022/04/04 06:41:39;;;;;;;16.88;7.60;;;;;;;;;;4993404;28;20184;-75
2022/04/04 06:44:05;;;;;;;25.20;8.90;;;;;;;;;;4993175;28;20185;-79
2022/04/04 06:46:36;;;;;;;16.23;8.35;;;;;;;;;;4993454;28;20192;-79
2022/04/04 06:49:04;;;;;;;11.15;6.97;;;2.20;1.00;;;;;;4993456;28;20507;-83
2022/04/04 06:51:30;;;;;;;11.90;8.10;;;;;;;;;;4993906;28;20182;-82
2022/04/04 06:53:55;;;;;;;13.40;7.83;;;;;;;;;;4993701;28;20248;-82
2022/04/04 06:56:21;;;;;;;13.17;7.70;;;;;;;;;;4993186;28;20939;-82
2022/04/04 06:58:48;;;;;;;10.60;7.57;;;;;;;;;;4992873;28;20456;-83
2022/04/04 07:01:14;;;;;;;9.15;5.50;;;;;;;;;;4993526;28;20433;-82
2022/04/04 07:03:40;;;;;;;17.93;5.83;;;;;;;;;;4993801;28;20227;-83
2022/04/04 07:06:07;;;;;;;10.32;6.40;;;2.60;1.00;;;;;;4991536;28;20437;-70
2022/04/04 07:08:33;;;;;;;10.68;6.53;;;2.70;1.00;;;;;;4992649;28;20256;-70
2022/04/04 07:11:00;;;;;;;9.40;5.97;;;2.80;1.00;;;;;;4992640;28;20328;-70
2022/04/04 07:13:25;;;;;;;11.27;6.13;;;3.00;1.00;;;;;;4993808;28;20425;-73
2022/04/04 07:15:51;;;;;;;12.97;6.90;;;;;;;;;;4992922;28;20197;-73
2022/04/04 07:18:18;;;;;;;13.77;5.87;;;3.20;1.00;;;;;;4994621;28;20170;-73
2022/04/04 07:20:43;;;;;;;12.13;7.47;;;3.40;1.00;;;;;;4990829;28;20468;-73
2022/04/04 07:23:17;;;;;;;10.87;6.40;;;3.50;1.00;;;;;;4995494;28;20280;-72
2022/04/04 07:25:48;;;;;;;12.48;7.75;;;3.60;1.00;;;;;;4995953;28;20182;-72
2022/04/04 07:28:14;;;;;;;10.23;6.50;;;3.70;1.00;;;;;;4997285;28;20603;-70
2022/04/04 07:30:41;;;;;;;7.57;6.22;;;3.80;1.00;;;;;;4997507;28;20255;-70
2022/04/04 07:33:09;;;;;;;13.13;7.50;;;3.90;1.00;;;;;;4996153;28;20193;-71
2022/04/04 07:35:35;;;;;;;10.60;6.28;;;4.00;1.00;;;;;;4996501;28;20190;-70
2022/04/04 07:38:01;;;;;;;6.97;4.60;;;;;;;;;;4996490;28;20598;-72
2022/04/04 07:40:28;;;;;;;11.47;7.33;;;4.10;1.00;;;;;;4995846;28;20676;-71
2022/04/04 07:42:59;;;;;;;11.35;6.57;;;4.20;1.00;;;;;;4996416;28;20495;-72
2022/04/04 07:45:31;;;;;;;7.63;5.97;;;4.30;1.00;;;;;;4996524;28;20190;-72
2022/04/04 07:47:57;;;;;;;10.95;7.22;;;4.40;1.00;;;;;;4996193;28;20182;-72
2022/04/04 07:50:23;;;;;;;13.00;7.17;;;4.60;1.00;;;;;;4995906;28;20244;-72
2022/04/04 07:52:49;;;;;;;10.30;7.00;;;4.60;1.00;;;;;;4996407;28;20436;-73
2022/04/04 07:55:17;;;;;;;10.93;6.67;;;4.50;1.00;;;;;;4996205;28;20181;-73
2022/04/04 07:57:43;;;;;;;9.82;4.25;;;4.50;1.00;;;;;;4996272;28;20181;-73
2022/04/04 08:00:14;;;;;;;14.00;7.13;;;4.40;1.00;;;;;;4996136;28;20217;-71
2022/04/04 08:02:40;;;;;;;11.93;6.57;;;4.40;1.00;;;;;;4995739;28;20447;-71
2022/04/04 08:05:07;;;;;;;11.07;6.43;;;;;;;;;;4995996;28;20461;-71
2022/04/04 08:07:33;;;;;;;11.75;6.75;;;;;;;;;;4996028;28;20432;-71
2022/04/04 08:09:59;;;;;;;7.37;5.50;;;;;;;;;;4995712;28;20715;-71
2022/04/04 08:12:28;;;;;;;8.40;5.45;;;4.50;1.00;;;;;;4992283;28;20803;-71
2022/04/04 08:14:54;;;;;;;10.63;6.90;;;4.50;1.00;;;;;;4996633;28;20599;-71
2022/04/04 08:17:21;;;;;;;9.93;6.50;;;4.50;1.00;;;;;;4995541;28;20468;-71
2022/04/04 08:19:48;;;;;;;12.57;7.47;;;;;;;;;;4994072;28;20563;-71
2022/04/04 08:22:15;;;;;;;12.35;6.47;;;;;;;;;;4995737;28;20413;-71
2022/04/04 08:24:41;;;;;;;8.87;5.57;;;4.90;1.00;;;;;;4994453;28;20174;-71
2022/04/04 08:27:09;;;;;;;9.67;4.87;;;4.90;1.00;;;;;;4995389;28;20436;-71
2022/04/04 08:29:35;;;;;;;14.13;7.57;;;;;;;;;;4995437;28;20440;-72
2022/04/04 08:32:01;;;;;;;8.73;5.33;;;5.00;1.00;;;;;;4994133;28;20408;-73
2022/04/04 08:34:28;;;;;;;10.73;6.87;;;;;;;;;;4995364;28;20436;-73
2022/04/04 08:36:54;;;;;;;11.87;7.57;;;5.30;1.00;;;;;;4994374;28;20189;-73
2022/04/04 08:39:20;;;;;;;12.90;7.80;;;5.50;1.00;;;;;;4991862;28;20480;-73
2022/04/04 08:41:46;;;;;;;9.77;7.07;;;;;;;;;;4993315;28;20816;-73
2022/04/04 08:44:14;;;;;;;12.17;7.40;;;5.80;1.00;;;;;;4990750;28;20262;-71
2022/04/04 08:46:41;;;;;;;10.83;7.00;;;;;;;;;;4994251;28;20427;-72
2022/04/04 08:49:07;;;;;;;9.93;6.70;;;6.00;1.00;;;;;;4994317;28;20464;-71
2022/04/04 08:51:34;;;;;;;9.87;6.97;;;6.10;1.00;;;;;;5010146;28;20456;-71
2022/04/04 08:54:00;;;;;;;13.47;7.60;;;6.20;1.00;;;;;;4994724;28;20459;-71
2022/04/04 08:56:26;;;;;;;16.60;6.10;;;6.40;1.00;;;;;;4995214;28;20439;-71
2022/04/04 08:58:53;;;;;;;10.27;6.93;;;6.40;1.00;;;;;;4995409;28;20657;-72
2022/04/04 09:01:20;;;;;;;9.37;6.67;;;6.60;1.00;;;;;;4994552;28;20460;-73
2022/04/04 09:03:52;;;;;;;12.30;7.67;;;6.70;1.00;;;;;;4994707;28;21118;-73
2022/04/04 09:06:18;;;;;;;10.20;6.43;;;6.90;1.00;;;;;;4994784;28;20439;-73
2022/04/04 09:08:45;;;;;;;10.67;7.13;;;6.90;1.00;;;;;;4995041;28;20432;-73
2022/04/04 09:11:13;;;;;;;5.77;4.40;;;7.00;1.00;;;;;;4994819;28;20182;-72
2022/04/04 09:13:39;;;;;;;10.10;7.40;;;;;;;;;;5003127;28;20432;-71
2022/04/04 09:16:07;;;;;;;13.60;7.80;;;7.10;1.00;;;;;;4994545;28;20962;-73
2022/04/04 09:18:36;;;;;;;10.07;6.27;;;;;;;;;;4994606;28;20474;-73
2022/04/04 09:21:04;;;;;;;9.73;5.80;;;7.20;99.90;;;;;;4994435;28;20456;-73
2022/04/04 09:23:34;;;;;;;9.33;6.67;;;7.20;99.90;;;;;;4994420;28;20416;-73
2022/04/04 09:26:00;;;;;;;7.63;5.43;;;;;;;;;;4994390;28;20436;-73
2022/04/04 09:28:26;;;;;;;6.73;5.20;;;7.30;99.90;;;;;;4994201;28;20777;-73
2022/04/04 09:31:09;;;;;;;6.63;4.33;;;7.30;99.90;;;;;;4994529;28;20911;-71
2022/04/04 09:33:36;;;;;;;11.47;5.33;;;7.40;99.90;;;;;;4989537;28;20464;-72
2022/04/04 09:36:03;;;;;;;6.53;4.90;;;7.60;99.90;;;;;;4986472;28;20947;-71
2022/04/04 09:38:30;;;;;;;4.90;4.33;;;7.60;99.90;;;;;;4994058;28;20429;-71
2022/04/04 09:40:57;;;;;;;4.50;4.10;;;;;;;;;;4988987;28;20478;-71
2022/04/04 09:43:23;;;;;;;6.60;4.07;;;;;;;;;;4977274;28;20409;-71
2022/04/04 09:45:49;;;;;;;6.37;4.50;;;7.70;99.90;;;;;;4994164;28;20507;-73
2022/04/04 09:48:27;;;;;;;7.23;4.50;;;7.70;99.90;;;;;;4994246;28;20421;-73
2022/04/04 09:50:53;;;;;;;12.50;4.53;;;7.70;99.90;;;;;;4985991;28;20185;-73
2022/04/04 09:53:29;;;;;;;6.77;4.60;;;7.80;99.90;;;;;;4994808;28;20804;-74
2022/04/04 09:56:04;;;;;;;4.63;3.90;;;8.00;99.90;;;;;;4995194;28;20255;-74
2022/04/04 09:58:31;;;;;;;3.50;3.20;;;8.30;99.90;;;;;;4994855;28;20421;-74
2022/04/04 10:01:00;;;;;;;6.03;4.80;;;8.40;99.90;;;;;;4994855;28;20457;-70
2022/04/04 10:03:28;;;;;;;7.40;5.37;;;8.60;99.90;;;;;;4994741;28;20475;-71
2022/04/04 10:05:55;;;;;;;5.10;4.00;;;8.90;99.90;;;;;;4994564;28;20459;-71
2022/04/04 10:08:24;;;;;;;4.87;4.30;;;9.10;99.90;;;;;;4993175;28;20439;-72
2022/04/04 10:10:51;;;;;;;5.77;4.07;;;9.20;99.90;;;;;;4993079;28;20772;-71
2022/04/04 10:13:17;;;;;;;6.20;3.90;;;;;;;;;;4993026;28;20437;-71
2022/04/04 10:15:44;;;;;;;5.10;4.13;;;9.50;99.90;;;;;;4993460;28;20460;-74
2022/04/04 10:18:11;;;;;;;4.80;4.17;;;9.70;99.90;;;;;;4993490;28;20425;-74
2022/04/04 10:20:37;;;;;;;5.67;3.90;;;9.80;99.90;;;;;;4993628;28;20548;-74
2022/04/04 10:23:05;;;;;;;12.03;5.27;;;9.90;99.90;;;;;;4993541;28;20480;-74
2022/04/04 10:25:33;;;;;;;6.30;3.90;;;10.10;99.90;;;;;;4992838;28;20432;-74
2022/04/04 10:27:59;;;;;;;7.90;5.50;;;10.10;99.90;;;;;;4985252;28;20417;-75
2022/04/04 10:30:40;;;;;;;5.07;4.00;;;10.10;99.90;;;;;;4993970;28;20420;-75
2022/04/04 10:33:23;;;;;;;4.40;4.00;;;9.70;99.90;;;;;;4993258;28;20514;-74
2022/04/04 10:36:00;;;;;;;4.47;3.63;;;9.60;99.90;;;;;;4993071;28;20443;-74
2022/04/04 10:38:34;;;;;;;6.10;5.10;;;9.50;99.90;;;;;;4993494;28;20473;-74
2022/04/04 10:41:07;;;;;;;7.77;3.90;;;;;;;;;;4993406;28;20458;-74
2022/04/04 10:43:34;;;;;;;4.30;3.90;;;9.80;99.90;;;;;;4992846;28;20482;-73
2022/04/04 10:46:02;;;;;;;5.10;4.50;;;9.80;99.90;;;;;;4993225;28;20434;-73
2022/04/04 10:48:31;;;;;;;7.67;4.73;;;9.90;99.90;;;;;;4993094;28;20827;-72
2022/04/04 10:51:20;;;;;;;7.00;4.20;;;10.10;99.90;;;;;;4993602;28;20431;-70
2022/04/04 10:53:54;;;;;;;5.30;4.10;;;10.00;99.90;;;;;;4997166;28;20443;-70
2022/04/04 10:56:21;;;;;;;11.33;3.97;;;;;;;;;;4996345;28;20511;-71
2022/04/04 10:58:49;;;;;;;5.80;4.10;;;9.80;99.90;;;;;;4997283;28;20489;-70
2022/04/04 11:01:19;;;;;;;7.37;4.77;;;;;;;;;;4997644;28;20431;-74
2022/04/04 11:04:00;;;;;;;4.43;3.80;;;10.10;99.90;;;;;;4997304;28;20459;-74
2022/04/04 11:09:32;;;;;;;3.43;3.13;;;10.50;99.90;;;;;;4987182;28;20424;-75
2022/04/04 11:12:01;;;;;;;4.90;3.40;;;10.30;99.90;;;;;;4997166;28;20428;-74
2022/04/04 11:14:39;;;;;;;7.83;5.07;;;10.20;99.90;;;;;;5005935;28;20946;-73
2022/04/04 11:17:11;;;;;;;6.40;4.80;;;10.40;99.90;;;;;;4996872;28;20433;-74
2022/04/04 11:19:50;;;;;;;4.10;3.70;;;10.40;99.90;;;;;;4996287;28;20859;-76
2022/04/04 11:22:30;;;;;;;7.13;4.30;;;10.20;99.90;;;;;;4996912;28;20447;-74
2022/04/04 11:24:58;;;;;;;4.87;4.40;;;;;;;;;;4996825;28;20424;-72
2022/04/04 11:27:27;;;;;;;7.07;5.20;;;10.30;99.90;;;;;;4996285;28;20395;-73
2022/04/04 11:29:53;;;;;;;5.83;4.30;;;10.60;99.90;;;;;;4996157;28;20992;-74
2022/04/04 11:32:31;;;;;;;7.93;4.50;;;10.90;99.90;;;;;;4996650;28;20435;-78
2022/04/04 11:35:01;;;;;;;5.10;4.60;;;10.70;99.90;;;;;;4996739;28;20428;-79
2022/04/04 11:37:30;;;;;;;5.20;4.47;;;10.70;99.90;;;;;;4996798;28;20469;-77
2022/04/04 11:40:03;;;;;;;4.23;3.67;;;;;;;;;;4996389;28;20515;-79
2022/04/04 11:42:40;;;;;;;5.93;4.63;;;10.80;99.90;;;;;;4996132;28;20404;-79
2022/04/04 11:45:06;;;;;;;8.03;4.30;;;11.00;99.90;;;;;;4996578;28;20527;-76
2022/04/04 11:47:32;;;;;;;7.87;4.43;;;;;;;;;;4996516;28;20507;-78
2022/04/04 11:50:01;;;;;;;14.13;4.80;;;11.10;99.90;;;;;;4996130;28;20468;-78
2022/04/04 11:52:27;;;;;;;6.07;3.50;;;;;;;;;;4995921;28;20440;-78
2022/04/04 11:54:53;;;;;;;4.70;4.17;;;11.20;99.90;;;;;;4995251;28;20452;-78
2022/04/04 11:57:21;;;;;;;5.27;4.03;;;;;;;;;;4996190;28;20506;-78
2022/04/04 11:59:51;;;;;;;9.07;4.20;;;11.50;99.90;;;;;;4996547;28;20174;-79
2022/04/04 12:02:23;;;;;;;4.73;3.63;;;11.60;99.90;;;;;;4996085;28;20956;-78
2022/04/04 12:04:56;;;;;;;5.80;4.27;;;11.50;99.90;;;;;;4995757;28;20416;-77
2022/04/04 12:07:23;;;;;;;8.03;4.60;;;11.40;99.90;;;;;;4995026;28;20430;-78
2022/04/04 12:09:52;;;;;;;8.90;4.50;;;11.40;99.90;;;;;;4994814;28;20528;-78
2022/04/04 12:12:18;;;;;;;4.70;4.20;;;11.50;99.90;;;;;;4996611;28;20399;-77
2022/04/04 12:14:47;;;;;;;6.20;4.10;;;11.60;99.90;;;;;;4996114;28;20446;-79
2022/04/04 12:17:16;;;;;;;5.43;4.60;;;;;;;;;;4996243;28;20676;-74
2022/04/04 12:19:47;;;;;;;5.70;4.70;;;11.50;99.90;;;;;;4995533;28;20932;-74
2022/04/04 12:25:03;;;;;;;5.57;3.83;;;11.20;99.90;;;;;;4996122;28;20426;-75
2022/04/04 12:27:29;;;;;;;6.93;3.70;;;10.90;99.90;;;;;;4983519;28;20878;-75
2022/04/04 12:30:04;;;;;;;5.33;4.37;;;10.90;99.90;;;;;;4995345;28;20437;-75
2022/04/04 12:32:37;;;;;;;5.43;3.50;;;10.90;99.90;;;;;;4995971;28;20177;-70
2022/04/04 12:35:06;;;;;;;3.73;2.97;;;10.80;99.90;;;;;;4995532;28;20417;-72
2022/04/04 12:37:42;;;;;;;4.67;3.67;;;10.60;99.90;;;;;;4995508;28;20505;-71
2022/04/04 12:40:15;;;;;;;7.10;3.40;;;10.40;99.90;;;;;;4995112;28;20535;-70
2022/04/04 12:42:41;;;;;;;4.30;3.00;;;10.30;99.90;;;;;;4995058;28;20507;-71
2022/04/04 12:45:07;;;;;;;6.73;3.43;;;10.30;99.90;;;;;;4994970;28;20404;-70
2022/04/04 12:47:33;;;;;;;4.30;3.80;;;;;;;;;;4995378;28;20989;-71
2022/04/04 12:50:14;;;;;;;5.27;3.93;;;10.60;99.90;;;;;;4995006;28;20533;-71
2022/04/04 12:53:04;;;;;;;4.10;3.40;;;10.80;99.90;;;;;;4995026;28;20454;-71
2022/04/04 12:55:30;;;;;;;4.90;3.40;;;;;;;;;;4995355;28;20447;-71
2022/04/04 12:58:13;;;;;;;4.87;3.47;;;10.60;99.90;;;;;;4995378;28;20392;-82
2022/04/04 13:00:40;;;;;;;3.83;2.60;;;10.50;99.90;;;;;;4994533;28;20427;-72
2022/04/04 13:03:22;;;;;;;8.90;3.70;;;10.40;99.90;;;;;;4995150;28;20444;-72
2022/04/04 13:05:58;;;;;;;3.67;3.37;;;10.50;99.90;;;;;;4995056;28;20496;-73
2022/04/04 13:08:30;;;;;;;3.30;3.00;;;10.30;99.90;;;;;;4993639;28;20418;-72
2022/04/04 13:11:06;;;;;;;4.83;4.00;;;10.40;99.90;;;;;;4993401;28;20436;-72
2022/04/04 13:13:34;;;;;;;3.57;3.00;;;10.60;99.90;;;;;;4993418;28;20412;-73
2022/04/04 13:16:00;;;;;;;9.63;3.60;;;;;;;;;;4993707;28;20709;-73
2022/04/04 13:18:26;;;;;;;4.80;3.63;;;10.40;99.90;;;;;;4994219;28;20417;-71
2022/04/04 13:20:52;;;;;;;4.33;3.60;;;;;;;;;;4994297;28;20545;-71
2022/04/04 13:23:18;;;;;;;5.87;4.20;;;10.40;99.90;;;;;;4994751;28;20270;-72
2022/04/04 13:25:46;;;;;;;4.13;3.20;;;10.40;99.90;;;;;;4994602;28;20431;-71
2022/04/04 13:28:13;;;;;;;4.73;3.80;;;;;;;;;;4994338;28;20824;-72
2022/04/04 13:30:40;;;;;;;6.77;4.00;;;10.40;99.90;;;;;;4993445;28;20986;-72
2022/04/04 13:33:09;;;;;;;4.70;3.23;;;10.30;99.90;;;;;;4995095;28;20429;-77
2022/04/04 13:35:35;;;;;;;4.03;3.60;;;10.40;99.90;;;;;;4994292;28;20424;-77
2022/04/04 13:38:02;;;;;;;6.00;4.40;;;;;;;;;;4994589;28;20396;-77
2022/04/04 13:40:28;;;;;;;11.90;4.07;;;;;;;;;;4993994;28;20423;-77
2022/04/04 13:42:54;;;;;;;3.80;3.47;;;;;;;;;;4994225;28;20472;-77
2022/04/04 13:45:20;;;;;;;4.50;3.63;;;10.40;99.90;;;;;;4994245;28;20522;-77
2022/04/04 13:47:47;;;;;;;8.00;3.70;;;10.40;99.90;;;;;;4993975;28;20464;-74
2022/04/04 13:50:13;;;;;;;3.30;3.00;;;10.40;99.90;;;;;;4995192;28;20659;-76
2022/04/04 13:52:40;;;;;;;4.33;3.37;;;10.40;99.90;;;;;;4994917;28;20400;-74
2022/04/04 13:55:08;;;;;;;4.60;4.20;;;10.40;99.90;;;;;;4993552;28;20659;-75
2022/04/04 13:57:34;;;;;;;7.83;4.10;;;10.50;99.90;;;;;;4993729;28;20444;-75
2022/04/04 14:00:00;;;;;;;3.80;3.43;;;10.40;99.90;;;;;;4994045;28;20466;-75